sensor_id;sensor_type;location;lat;lon;timestamp;P1;durP1;ratioP1;P2;durP2;ratioP2
25175;SDS011;13135;55.166;61.286;2022-12-07T00:02:14;7.20;;;6.80;;
25175;SDS011;13135;55.166;61.286;2022-12-07T00:05:00;5.80;;;5.30;;
25175;SDS011;13135;55.166;61.286;2022-12-07T00:07:44;7.80;;;7.20;;
25175;SDS011;13135;55.166;61.286;2022-12-07T00:10:28;7.40;;;5.50;;
25175;SDS011;13135;55.166;61.286;2022-12-07T00:13:11;7.57;;;7.00;;
25175;SDS011;13135;55.166;61.286;2022-12-07T00:15:59;6.63;;;6.20;;
25175;SDS011;13135;55.166;61.286;2022-12-07T00:18:41;3.47;;;3.37;;
25175;SDS011;13135;55.166;61.286;2022-12-07T00:21:28;6.10;;;5.43;;
25175;SDS011;13135;55.166;61.286;2022-12-07T00:24:12;6.50;;;5.83;;
25175;SDS011;13135;55.166;61.286;2022-12-07T00:26:56;7.03;;;5.13;;
25175;SDS011;13135;55.166;61.286;2022-12-07T00:29:40;5.50;;;4.93;;
25175;SDS011;13135;55.166;61.286;2022-12-07T00:32:24;9.00;;;6.17;;
25175;SDS011;13135;55.166;61.286;2022-12-07T00:35:09;8.00;;;6.77;;
25175;SDS011;13135;55.166;61.286;2022-12-07T00:37:54;5.37;;;5.07;;
25175;SDS011;13135;55.166;61.286;2022-12-07T00:40:38;6.37;;;6.00;;
25175;SDS011;13135;55.166;61.286;2022-12-07T00:43:23;7.33;;;6.90;;
25175;SDS011;13135;55.166;61.286;2022-12-07T00:46:08;4.00;;;3.77;;
25175;SDS011;13135;55.166;61.286;2022-12-07T00:48:52;21.37;;;5.13;;
25175;SDS011;13135;55.166;61.286;2022-12-07T00:51:37;5.27;;;5.07;;
25175;SDS011;13135;55.166;61.286;2022-12-07T00:54:26;5.43;;;5.17;;
25175;SDS011;13135;55.166;61.286;2022-12-07T00:57:10;7.17;;;5.53;;
25175;SDS011;13135;55.166;61.286;2022-12-07T00:59:54;5.80;;;5.47;;
25175;SDS011;13135;55.166;61.286;2022-12-07T01:02:38;3.77;;;3.63;;
25175;SDS011;13135;55.166;61.286;2022-12-07T01:05:22;2.90;;;2.77;;
25175;SDS011;13135;55.166;61.286;2022-12-07T01:08:06;6.80;;;6.40;;
25175;SDS011;13135;55.166;61.286;2022-12-07T01:10:57;6.93;;;6.47;;
25175;SDS011;13135;55.166;61.286;2022-12-07T01:13:40;5.23;;;4.93;;
25175;SDS011;13135;55.166;61.286;2022-12-07T01:16:27;12.43;;;11.60;;
25175;SDS011;13135;55.166;61.286;2022-12-07T01:19:10;14.83;;;13.20;;
25175;SDS011;13135;55.166;61.286;2022-12-07T01:21:55;3.00;;;2.90;;
25175;SDS011;13135;55.166;61.286;2022-12-07T01:24:39;15.13;;;13.63;;
25175;SDS011;13135;55.166;61.286;2022-12-07T01:27:23;6.83;;;6.33;;
25175;SDS011;13135;55.166;61.286;2022-12-07T01:30:09;6.40;;;5.90;;
25175;SDS011;13135;55.166;61.286;2022-12-07T01:32:54;5.40;;;5.10;;
25175;SDS011;13135;55.166;61.286;2022-12-07T01:35:39;15.03;;;7.83;;
25175;SDS011;13135;55.166;61.286;2022-12-07T01:38:22;14.67;;;13.70;;
25175;SDS011;13135;55.166;61.286;2022-12-07T01:41:07;5.37;;;5.13;;
25175;SDS011;13135;55.166;61.286;2022-12-07T01:46:51;3.47;;;3.27;;
25175;SDS011;13135;55.166;61.286;2022-12-07T01:49:40;6.30;;;5.23;;
25175;SDS011;13135;55.166;61.286;2022-12-07T01:52:30;6.63;;;6.23;;
25175;SDS011;13135;55.166;61.286;2022-12-07T01:55:13;14.73;;;13.53;;
25175;SDS011;13135;55.166;61.286;2022-12-07T01:57:57;12.03;;;11.27;;
25175;SDS011;13135;55.166;61.286;2022-12-07T02:00:43;9.10;;;6.67;;
25175;SDS011;13135;55.166;61.286;2022-12-07T02:03:29;3.77;;;2.90;;
25175;SDS011;13135;55.166;61.286;2022-12-07T02:06:13;5.87;;;5.37;;
25175;SDS011;13135;55.166;61.286;2022-12-07T02:08:55;8.13;;;7.57;;
25175;SDS011;13135;55.166;61.286;2022-12-07T02:11:40;4.20;;;4.00;;
25175;SDS011;13135;55.166;61.286;2022-12-07T02:14:23;5.07;;;4.87;;
25175;SDS011;13135;55.166;61.286;2022-12-07T02:17:12;8.70;;;8.20;;
25175;SDS011;13135;55.166;61.286;2022-12-07T02:20:05;4.63;;;4.33;;
25175;SDS011;13135;55.166;61.286;2022-12-07T02:28:45;5.00;;;4.70;;
25175;SDS011;13135;55.166;61.286;2022-12-07T02:31:31;11.47;;;10.53;;
25175;SDS011;13135;55.166;61.286;2022-12-07T02:34:18;3.60;;;3.50;;
25175;SDS011;13135;55.166;61.286;2022-12-07T02:37:06;5.23;;;4.93;;
25175;SDS011;13135;55.166;61.286;2022-12-07T02:39:51;10.33;;;5.40;;
25175;SDS011;13135;55.166;61.286;2022-12-07T02:42:36;6.90;;;4.43;;
25175;SDS011;13135;55.166;61.286;2022-12-07T02:45:22;7.40;;;4.60;;
25175;SDS011;13135;55.166;61.286;2022-12-07T02:48:05;6.63;;;6.13;;
25175;SDS011;13135;55.166;61.286;2022-12-07T02:50:51;3.23;;;3.13;;
25175;SDS011;13135;55.166;61.286;2022-12-07T02:53:35;5.40;;;5.10;;
25175;SDS011;13135;55.166;61.286;2022-12-07T02:56:26;4.13;;;3.93;;
25175;SDS011;13135;55.166;61.286;2022-12-07T03:02:31;5.50;;;5.20;;
25175;SDS011;13135;55.166;61.286;2022-12-07T03:05:28;4.00;;;3.87;;
25175;SDS011;13135;55.166;61.286;2022-12-07T03:08:14;6.90;;;6.10;;
25175;SDS011;13135;55.166;61.286;2022-12-07T03:10:58;4.27;;;4.07;;
25175;SDS011;13135;55.166;61.286;2022-12-07T03:13:45;4.20;;;3.97;;
25175;SDS011;13135;55.166;61.286;2022-12-07T03:16:35;4.07;;;3.87;;
25175;SDS011;13135;55.166;61.286;2022-12-07T03:19:18;10.13;;;7.63;;
25175;SDS011;13135;55.166;61.286;2022-12-07T03:22:03;3.67;;;3.57;;
25175;SDS011;13135;55.166;61.286;2022-12-07T03:24:50;6.40;;;5.90;;
25175;SDS011;13135;55.166;61.286;2022-12-07T03:27:37;7.80;;;7.27;;
25175;SDS011;13135;55.166;61.286;2022-12-07T03:30:27;6.93;;;6.63;;
25175;SDS011;13135;55.166;61.286;2022-12-07T03:33:18;5.33;;;4.97;;
25175;SDS011;13135;55.166;61.286;2022-12-07T03:36:01;5.43;;;5.03;;
25175;SDS011;13135;55.166;61.286;2022-12-07T03:38:48;10.53;;;9.60;;
25175;SDS011;13135;55.166;61.286;2022-12-07T03:41:39;3.23;;;3.03;;
25175;SDS011;13135;55.166;61.286;2022-12-07T03:44:23;4.03;;;3.83;;
25175;SDS011;13135;55.166;61.286;2022-12-07T03:47:07;3.40;;;3.30;;
25175;SDS011;13135;55.166;61.286;2022-12-07T03:49:58;3.23;;;3.03;;
25175;SDS011;13135;55.166;61.286;2022-12-07T03:52:44;4.23;;;4.03;;
25175;SDS011;13135;55.166;61.286;2022-12-07T03:55:30;4.87;;;4.67;;
25175;SDS011;13135;55.166;61.286;2022-12-07T03:58:16;3.97;;;3.80;;
25175;SDS011;13135;55.166;61.286;2022-12-07T04:00:59;5.23;;;4.90;;
25175;SDS011;13135;55.166;61.286;2022-12-07T04:03:46;4.03;;;3.83;;
25175;SDS011;13135;55.166;61.286;2022-12-07T04:06:30;3.97;;;3.77;;
25175;SDS011;13135;55.166;61.286;2022-12-07T04:09:14;4.87;;;4.67;;
25175;SDS011;13135;55.166;61.286;2022-12-07T04:11:59;9.17;;;8.67;;
25175;SDS011;13135;55.166;61.286;2022-12-07T04:14:41;6.83;;;6.53;;
25175;SDS011;13135;55.166;61.286;2022-12-07T04:17:26;6.77;;;6.47;;
25175;SDS011;13135;55.166;61.286;2022-12-07T04:20:11;3.20;;;3.10;;
25175;SDS011;13135;55.166;61.286;2022-12-07T04:22:56;4.97;;;4.77;;
25175;SDS011;13135;55.166;61.286;2022-12-07T04:25:40;4.47;;;4.30;;
25175;SDS011;13135;55.166;61.286;2022-12-07T04:28:21;6.27;;;5.67;;
25175;SDS011;13135;55.166;61.286;2022-12-07T04:31:04;4.27;;;4.07;;
25175;SDS011;13135;55.166;61.286;2022-12-07T04:33:48;5.57;;;5.27;;
25175;SDS011;13135;55.166;61.286;2022-12-07T04:36:32;6.83;;;6.43;;
25175;SDS011;13135;55.166;61.286;2022-12-07T04:39:19;2.93;;;2.83;;
25175;SDS011;13135;55.166;61.286;2022-12-07T04:42:01;6.57;;;5.23;;
25175;SDS011;13135;55.166;61.286;2022-12-07T04:44:45;7.87;;;7.33;;
25175;SDS011;13135;55.166;61.286;2022-12-07T04:47:31;4.60;;;4.40;;
25175;SDS011;13135;55.166;61.286;2022-12-07T04:50:15;4.23;;;4.07;;
25175;SDS011;13135;55.166;61.286;2022-12-07T04:52:56;5.00;;;4.53;;
25175;SDS011;13135;55.166;61.286;2022-12-07T04:55:40;10.47;;;8.53;;
25175;SDS011;13135;55.166;61.286;2022-12-07T04:58:24;8.93;;;8.10;;
25175;SDS011;13135;55.166;61.286;2022-12-07T05:01:10;4.20;;;3.97;;
25175;SDS011;13135;55.166;61.286;2022-12-07T05:03:54;5.67;;;5.43;;
25175;SDS011;13135;55.166;61.286;2022-12-07T05:06:38;4.17;;;3.97;;
25175;SDS011;13135;55.166;61.286;2022-12-07T05:09:22;7.90;;;5.43;;
25175;SDS011;13135;55.166;61.286;2022-12-07T05:12:06;9.13;;;7.70;;
25175;SDS011;13135;55.166;61.286;2022-12-07T05:14:47;5.93;;;5.63;;
25175;SDS011;13135;55.166;61.286;2022-12-07T05:17:33;5.60;;;5.07;;
25175;SDS011;13135;55.166;61.286;2022-12-07T05:20:17;4.73;;;4.53;;
25175;SDS011;13135;55.166;61.286;2022-12-07T05:23:01;14.30;;;13.20;;
25175;SDS011;13135;55.166;61.286;2022-12-07T05:25:46;11.40;;;5.60;;
25175;SDS011;13135;55.166;61.286;2022-12-07T05:28:29;6.27;;;5.77;;
25175;SDS011;13135;55.166;61.286;2022-12-07T05:31:14;4.83;;;4.60;;
25175;SDS011;13135;55.166;61.286;2022-12-07T05:33:59;3.70;;;3.53;;
25175;SDS011;13135;55.166;61.286;2022-12-07T05:36:43;4.30;;;4.13;;
25175;SDS011;13135;55.166;61.286;2022-12-07T05:39:28;5.80;;;5.23;;
25175;SDS011;13135;55.166;61.286;2022-12-07T05:42:13;6.50;;;6.03;;
25175;SDS011;13135;55.166;61.286;2022-12-07T05:44:58;4.60;;;4.37;;
25175;SDS011;13135;55.166;61.286;2022-12-07T05:47:44;7.00;;;6.50;;
25175;SDS011;13135;55.166;61.286;2022-12-07T05:50:29;4.53;;;4.23;;
25175;SDS011;13135;55.166;61.286;2022-12-07T05:53:12;4.67;;;4.33;;
25175;SDS011;13135;55.166;61.286;2022-12-07T05:55:56;13.60;;;6.27;;
25175;SDS011;13135;55.166;61.286;2022-12-07T05:58:41;6.07;;;5.47;;
25175;SDS011;13135;55.166;61.286;2022-12-07T06:01:26;8.17;;;7.40;;
25175;SDS011;13135;55.166;61.286;2022-12-07T06:04:12;9.03;;;8.20;;
25175;SDS011;13135;55.166;61.286;2022-12-07T06:06:59;6.97;;;6.57;;
25175;SDS011;13135;55.166;61.286;2022-12-07T06:09:43;5.27;;;4.77;;
25175;SDS011;13135;55.166;61.286;2022-12-07T06:12:27;7.77;;;7.20;;
25175;SDS011;13135;55.166;61.286;2022-12-07T06:15:12;3.67;;;3.53;;
25175;SDS011;13135;55.166;61.286;2022-12-07T06:17:57;6.17;;;5.87;;
25175;SDS011;13135;55.166;61.286;2022-12-07T06:20:42;5.80;;;5.23;;
25175;SDS011;13135;55.166;61.286;2022-12-07T06:23:26;5.00;;;4.60;;
25175;SDS011;13135;55.166;61.286;2022-12-07T06:26:08;3.70;;;3.50;;
25175;SDS011;13135;55.166;61.286;2022-12-07T06:28:53;7.20;;;6.83;;
25175;SDS011;13135;55.166;61.286;2022-12-07T06:31:37;4.10;;;3.93;;
25175;SDS011;13135;55.166;61.286;2022-12-07T06:34:22;15.03;;;13.67;;
25175;SDS011;13135;55.166;61.286;2022-12-07T06:37:07;6.40;;;6.07;;
25175;SDS011;13135;55.166;61.286;2022-12-07T06:39:51;11.47;;;10.33;;
25175;SDS011;13135;55.166;61.286;2022-12-07T06:42:36;8.67;;;7.87;;
25175;SDS011;13135;55.166;61.286;2022-12-07T06:45:21;5.97;;;5.57;;
25175;SDS011;13135;55.166;61.286;2022-12-07T06:48:06;6.37;;;5.87;;
25175;SDS011;13135;55.166;61.286;2022-12-07T06:50:48;6.83;;;6.20;;
25175;SDS011;13135;55.166;61.286;2022-12-07T06:53:30;10.03;;;9.00;;
25175;SDS011;13135;55.166;61.286;2022-12-07T06:56:14;7.43;;;6.83;;
25175;SDS011;13135;55.166;61.286;2022-12-07T06:58:58;15.87;;;11.70;;
25175;SDS011;13135;55.166;61.286;2022-12-07T07:01:43;19.63;;;10.73;;
25175;SDS011;13135;55.166;61.286;2022-12-07T07:04:34;12.47;;;7.37;;
25175;SDS011;13135;55.166;61.286;2022-12-07T07:07:38;8.27;;;7.47;;
25175;SDS011;13135;55.166;61.286;2022-12-07T07:10:22;10.00;;;6.33;;
25175;SDS011;13135;55.166;61.286;2022-12-07T07:13:07;10.73;;;8.60;;
25175;SDS011;13135;55.166;61.286;2022-12-07T07:15:52;9.10;;;8.43;;
25175;SDS011;13135;55.166;61.286;2022-12-07T07:18:36;6.90;;;6.50;;
25175;SDS011;13135;55.166;61.286;2022-12-07T07:21:22;15.10;;;8.70;;
25175;SDS011;13135;55.166;61.286;2022-12-07T07:24:07;5.37;;;5.07;;
25175;SDS011;13135;55.166;61.286;2022-12-07T07:26:51;13.70;;;6.93;;
25175;SDS011;13135;55.166;61.286;2022-12-07T07:29:36;14.60;;;10.47;;
25175;SDS011;13135;55.166;61.286;2022-12-07T07:32:22;14.50;;;13.23;;
25175;SDS011;13135;55.166;61.286;2022-12-07T07:35:07;20.60;;;16.30;;
25175;SDS011;13135;55.166;61.286;2022-12-07T07:37:52;10.63;;;9.60;;
25175;SDS011;13135;55.166;61.286;2022-12-07T07:40:37;11.87;;;10.40;;
25175;SDS011;13135;55.166;61.286;2022-12-07T07:43:21;12.20;;;10.17;;
25175;SDS011;13135;55.166;61.286;2022-12-07T07:46:02;9.87;;;9.00;;
25175;SDS011;13135;55.166;61.286;2022-12-07T07:48:47;10.97;;;9.67;;
25175;SDS011;13135;55.166;61.286;2022-12-07T07:51:32;9.27;;;8.20;;
25175;SDS011;13135;55.166;61.286;2022-12-07T07:54:22;12.43;;;9.57;;
25175;SDS011;13135;55.166;61.286;2022-12-07T07:57:06;8.77;;;8.00;;
25175;SDS011;13135;55.166;61.286;2022-12-07T07:59:46;16.03;;;9.50;;
25175;SDS011;13135;55.166;61.286;2022-12-07T08:02:32;11.13;;;8.20;;
25175;SDS011;13135;55.166;61.286;2022-12-07T08:05:25;14.93;;;9.60;;
25175;SDS011;13135;55.166;61.286;2022-12-07T08:08:10;10.30;;;9.37;;
25175;SDS011;13135;55.166;61.286;2022-12-07T08:10:55;14.93;;;9.73;;
25175;SDS011;13135;55.166;61.286;2022-12-07T08:13:41;20.63;;;10.97;;
25175;SDS011;13135;55.166;61.286;2022-12-07T08:16:27;17.60;;;12.00;;
25175;SDS011;13135;55.166;61.286;2022-12-07T08:19:19;22.40;;;15.13;;
25175;SDS011;13135;55.166;61.286;2022-12-07T08:22:04;36.30;;;16.07;;
25175;SDS011;13135;55.166;61.286;2022-12-07T08:24:48;38.17;;;15.83;;
25175;SDS011;13135;55.166;61.286;2022-12-07T08:27:33;29.07;;;16.13;;
25175;SDS011;13135;55.166;61.286;2022-12-07T08:30:18;27.40;;;15.90;;
25175;SDS011;13135;55.166;61.286;2022-12-07T08:33:03;30.40;;;17.40;;
25175;SDS011;13135;55.166;61.286;2022-12-07T08:35:48;33.40;;;16.33;;
25175;SDS011;13135;55.166;61.286;2022-12-07T08:38:34;32.00;;;17.33;;
25175;SDS011;13135;55.166;61.286;2022-12-07T08:41:19;30.03;;;17.67;;
25175;SDS011;13135;55.166;61.286;2022-12-07T08:44:04;36.33;;;17.60;;
25175;SDS011;13135;55.166;61.286;2022-12-07T08:46:50;32.20;;;16.97;;
25175;SDS011;13135;55.166;61.286;2022-12-07T08:49:36;30.63;;;15.97;;
25175;SDS011;13135;55.166;61.286;2022-12-07T08:52:21;37.63;;;16.67;;
25175;SDS011;13135;55.166;61.286;2022-12-07T08:55:03;33.73;;;17.43;;
25175;SDS011;13135;55.166;61.286;2022-12-07T08:57:49;35.90;;;18.93;;
25175;SDS011;13135;55.166;61.286;2022-12-07T09:00:33;38.40;;;17.90;;
25175;SDS011;13135;55.166;61.286;2022-12-07T09:03:18;35.60;;;15.93;;
25175;SDS011;13135;55.166;61.286;2022-12-07T09:06:02;40.03;;;17.50;;
25175;SDS011;13135;55.166;61.286;2022-12-07T09:08:46;32.10;;;17.37;;
25175;SDS011;13135;55.166;61.286;2022-12-07T09:11:30;38.83;;;19.00;;
25175;SDS011;13135;55.166;61.286;2022-12-07T09:14:15;42.67;;;16.90;;
25175;SDS011;13135;55.166;61.286;2022-12-07T09:17:07;35.47;;;19.10;;
25175;SDS011;13135;55.166;61.286;2022-12-07T09:19:57;36.97;;;18.30;;
25175;SDS011;13135;55.166;61.286;2022-12-07T09:22:42;35.87;;;17.27;;
25175;SDS011;13135;55.166;61.286;2022-12-07T09:25:26;37.30;;;17.93;;
25175;SDS011;13135;55.166;61.286;2022-12-07T09:28:10;40.10;;;19.10;;
25175;SDS011;13135;55.166;61.286;2022-12-07T09:30:55;37.57;;;19.17;;
25175;SDS011;13135;55.166;61.286;2022-12-07T09:33:39;39.77;;;18.93;;
25175;SDS011;13135;55.166;61.286;2022-12-07T09:36:23;42.33;;;19.47;;
25175;SDS011;13135;55.166;61.286;2022-12-07T09:39:07;33.53;;;18.30;;
25175;SDS011;13135;55.166;61.286;2022-12-07T09:41:52;41.60;;;19.77;;
25175;SDS011;13135;55.166;61.286;2022-12-07T09:44:39;41.73;;;18.87;;
25175;SDS011;13135;55.166;61.286;2022-12-07T09:47:22;40.77;;;19.80;;
25175;SDS011;13135;55.166;61.286;2022-12-07T09:50:12;44.27;;;20.93;;
25175;SDS011;13135;55.166;61.286;2022-12-07T09:53:05;42.47;;;22.33;;
25175;SDS011;13135;55.166;61.286;2022-12-07T09:56:02;39.53;;;20.47;;
25175;SDS011;13135;55.166;61.286;2022-12-07T09:58:46;41.30;;;20.97;;
25175;SDS011;13135;55.166;61.286;2022-12-07T10:01:31;40.27;;;19.90;;
25175;SDS011;13135;55.166;61.286;2022-12-07T10:04:17;42.70;;;22.13;;
25175;SDS011;13135;55.166;61.286;2022-12-07T10:07:00;45.83;;;23.70;;
25175;SDS011;13135;55.166;61.286;2022-12-07T10:09:45;50.13;;;26.20;;
25175;SDS011;13135;55.166;61.286;2022-12-07T10:12:29;52.50;;;26.30;;
25175;SDS011;13135;55.166;61.286;2022-12-07T10:15:14;49.27;;;23.80;;
25175;SDS011;13135;55.166;61.286;2022-12-07T10:18:00;46.40;;;22.40;;
25175;SDS011;13135;55.166;61.286;2022-12-07T10:20:47;49.63;;;23.37;;
25175;SDS011;13135;55.166;61.286;2022-12-07T10:23:31;44.03;;;21.10;;
25175;SDS011;13135;55.166;61.286;2022-12-07T10:26:20;40.70;;;20.40;;
25175;SDS011;13135;55.166;61.286;2022-12-07T10:32:00;48.90;;;21.43;;
25175;SDS011;13135;55.166;61.286;2022-12-07T10:34:45;37.17;;;19.07;;
25175;SDS011;13135;55.166;61.286;2022-12-07T10:37:30;43.93;;;19.70;;
25175;SDS011;13135;55.166;61.286;2022-12-07T10:40:25;190.23;;;74.03;;
25175;SDS011;13135;55.166;61.286;2022-12-07T10:43:17;158.93;;;63.17;;
25175;SDS011;13135;55.166;61.286;2022-12-07T10:46:07;103.10;;;38.37;;
25175;SDS011;13135;55.166;61.286;2022-12-07T10:48:58;50.23;;;23.30;;
25175;SDS011;13135;55.166;61.286;2022-12-07T10:52:10;58.33;;;23.73;;
25175;SDS011;13135;55.166;61.286;2022-12-07T10:58:14;47.57;;;22.10;;
25175;SDS011;13135;55.166;61.286;2022-12-07T11:01:18;46.77;;;23.63;;
25175;SDS011;13135;55.166;61.286;2022-12-07T11:04:15;39.73;;;18.53;;
25175;SDS011;13135;55.166;61.286;2022-12-07T11:07:10;37.00;;;18.03;;
25175;SDS011;13135;55.166;61.286;2022-12-07T11:10:01;39.03;;;19.93;;
25175;SDS011;13135;55.166;61.286;2022-12-07T11:24:48;34.30;;;16.13;;
25175;SDS011;13135;55.166;61.286;2022-12-07T11:27:39;17.53;;;13.07;;
25175;SDS011;13135;55.166;61.286;2022-12-07T11:30:39;13.50;;;10.63;;
25175;SDS011;13135;55.166;61.286;2022-12-07T11:33:26;19.40;;;11.60;;
25175;SDS011;13135;55.166;61.286;2022-12-07T11:36:17;13.80;;;9.87;;
25175;SDS011;13135;55.166;61.286;2022-12-07T11:39:02;24.43;;;11.60;;
25175;SDS011;13135;55.166;61.286;2022-12-07T11:41:52;24.10;;;11.10;;
25175;SDS011;13135;55.166;61.286;2022-12-07T11:50:34;25.13;;;13.53;;
25175;SDS011;13135;55.166;61.286;2022-12-07T11:53:20;18.47;;;13.90;;
25175;SDS011;13135;55.166;61.286;2022-12-07T11:56:12;25.93;;;14.30;;
25175;SDS011;13135;55.166;61.286;2022-12-07T11:58:58;27.00;;;11.77;;
25175;SDS011;13135;55.166;61.286;2022-12-07T12:01:48;25.83;;;12.10;;
25175;SDS011;13135;55.166;61.286;2022-12-07T12:04:49;17.33;;;12.50;;
25175;SDS011;13135;55.166;61.286;2022-12-07T12:07:40;14.33;;;11.10;;
25175;SDS011;13135;55.166;61.286;2022-12-07T12:10:36;14.07;;;12.07;;
25175;SDS011;13135;55.166;61.286;2022-12-07T12:13:28;20.50;;;11.77;;
25175;SDS011;13135;55.166;61.286;2022-12-07T12:16:34;16.57;;;9.53;;
25175;SDS011;13135;55.166;61.286;2022-12-07T12:19:22;15.90;;;10.37;;
25175;SDS011;13135;55.166;61.286;2022-12-07T12:22:14;20.30;;;13.83;;
25175;SDS011;13135;55.166;61.286;2022-12-07T12:24:57;33.03;;;12.13;;
25175;SDS011;13135;55.166;61.286;2022-12-07T12:27:41;14.57;;;10.93;;
25175;SDS011;13135;55.166;61.286;2022-12-07T12:30:30;12.23;;;9.43;;
25175;SDS011;13135;55.166;61.286;2022-12-07T12:33:26;14.77;;;10.97;;
25175;SDS011;13135;55.166;61.286;2022-12-07T12:39:15;19.43;;;12.60;;
25175;SDS011;13135;55.166;61.286;2022-12-07T12:42:02;28.40;;;11.10;;
25175;SDS011;13135;55.166;61.286;2022-12-07T12:50:39;10.27;;;8.87;;
25175;SDS011;13135;55.166;61.286;2022-12-07T12:53:24;11.03;;;10.00;;
25175;SDS011;13135;55.166;61.286;2022-12-07T13:04:53;11.63;;;7.60;;
25175;SDS011;13135;55.166;61.286;2022-12-07T13:10:39;10.90;;;9.07;;
25175;SDS011;13135;55.166;61.286;2022-12-07T13:13:28;8.80;;;7.97;;
25175;SDS011;13135;55.166;61.286;2022-12-07T13:16:37;8.93;;;8.10;;
25175;SDS011;13135;55.166;61.286;2022-12-07T13:25:12;8.33;;;7.63;;
25175;SDS011;13135;55.166;61.286;2022-12-07T13:27:57;10.63;;;9.17;;
25175;SDS011;13135;55.166;61.286;2022-12-07T13:30:45;13.30;;;7.90;;
25175;SDS011;13135;55.166;61.286;2022-12-07T13:33:36;16.00;;;9.37;;
25175;SDS011;13135;55.166;61.286;2022-12-07T13:36:22;16.23;;;8.17;;
25175;SDS011;13135;55.166;61.286;2022-12-07T13:42:06;12.47;;;9.37;;
25175;SDS011;13135;55.166;61.286;2022-12-07T13:44:44;13.80;;;9.50;;
25175;SDS011;13135;55.166;61.286;2022-12-07T13:47:34;9.23;;;7.83;;
25175;SDS011;13135;55.166;61.286;2022-12-07T13:50:22;13.87;;;10.03;;
25175;SDS011;13135;55.166;61.286;2022-12-07T13:53:12;13.23;;;9.50;;
25175;SDS011;13135;55.166;61.286;2022-12-07T13:55:56;32.77;;;21.10;;
25175;SDS011;13135;55.166;61.286;2022-12-07T13:58:39;12.13;;;10.87;;
25175;SDS011;13135;55.166;61.286;2022-12-07T14:01:24;11.53;;;9.97;;
25175;SDS011;13135;55.166;61.286;2022-12-07T14:07:00;9.43;;;8.67;;
25175;SDS011;13135;55.166;61.286;2022-12-07T14:09:52;8.60;;;7.13;;
25175;SDS011;13135;55.166;61.286;2022-12-07T14:12:29;23.63;;;10.03;;
25175;SDS011;13135;55.166;61.286;2022-12-07T14:15:19;11.53;;;8.90;;
25175;SDS011;13135;55.166;61.286;2022-12-07T14:17:59;23.57;;;16.27;;
25175;SDS011;13135;55.166;61.286;2022-12-07T14:20:40;11.30;;;8.57;;
25175;SDS011;13135;55.166;61.286;2022-12-07T14:23:25;17.87;;;11.20;;
25175;SDS011;13135;55.166;61.286;2022-12-07T14:26:14;11.00;;;8.43;;
25175;SDS011;13135;55.166;61.286;2022-12-07T14:29:30;8.90;;;7.77;;
25175;SDS011;13135;55.166;61.286;2022-12-07T14:32:20;14.63;;;12.50;;
25175;SDS011;13135;55.166;61.286;2022-12-07T14:35:09;7.37;;;6.50;;
25175;SDS011;13135;55.166;61.286;2022-12-07T14:37:56;16.60;;;8.90;;
25175;SDS011;13135;55.166;61.286;2022-12-07T14:40:45;12.30;;;9.83;;
25175;SDS011;13135;55.166;61.286;2022-12-07T14:43:29;43.37;;;23.03;;
25175;SDS011;13135;55.166;61.286;2022-12-07T14:46:13;30.37;;;20.53;;
25175;SDS011;13135;55.166;61.286;2022-12-07T14:48:57;12.20;;;10.23;;
25175;SDS011;13135;55.166;61.286;2022-12-07T14:51:43;14.30;;;7.77;;
25175;SDS011;13135;55.166;61.286;2022-12-07T14:54:27;39.17;;;14.03;;
25175;SDS011;13135;55.166;61.286;2022-12-07T14:57:12;10.90;;;9.87;;
25175;SDS011;13135;55.166;61.286;2022-12-07T15:00:00;17.30;;;10.57;;
25175;SDS011;13135;55.166;61.286;2022-12-07T15:02:46;12.00;;;9.93;;
25175;SDS011;13135;55.166;61.286;2022-12-07T15:05:30;7.20;;;6.57;;
25175;SDS011;13135;55.166;61.286;2022-12-07T15:08:15;10.60;;;9.50;;
25175;SDS011;13135;55.166;61.286;2022-12-07T15:10:59;13.17;;;8.43;;
25175;SDS011;13135;55.166;61.286;2022-12-07T15:13:44;5.63;;;5.23;;
25175;SDS011;13135;55.166;61.286;2022-12-07T15:16:29;23.00;;;13.53;;
25175;SDS011;13135;55.166;61.286;2022-12-07T15:19:14;19.07;;;17.27;;
25175;SDS011;13135;55.166;61.286;2022-12-07T15:21:59;13.43;;;11.67;;
25175;SDS011;13135;55.166;61.286;2022-12-07T15:24:43;11.50;;;8.50;;
25175;SDS011;13135;55.166;61.286;2022-12-07T15:27:29;10.87;;;8.10;;
25175;SDS011;13135;55.166;61.286;2022-12-07T15:30:16;9.57;;;8.67;;
25175;SDS011;13135;55.166;61.286;2022-12-07T15:33:00;15.33;;;8.10;;
25175;SDS011;13135;55.166;61.286;2022-12-07T15:35:47;7.00;;;6.40;;
25175;SDS011;13135;55.166;61.286;2022-12-07T15:38:32;6.80;;;6.30;;
25175;SDS011;13135;55.166;61.286;2022-12-07T15:41:17;12.00;;;6.50;;
25175;SDS011;13135;55.166;61.286;2022-12-07T15:44:02;6.10;;;5.53;;
25175;SDS011;13135;55.166;61.286;2022-12-07T15:46:45;7.67;;;6.83;;
25175;SDS011;13135;55.166;61.286;2022-12-07T15:49:30;10.00;;;6.70;;
25175;SDS011;13135;55.166;61.286;2022-12-07T15:52:15;8.00;;;7.20;;
25175;SDS011;13135;55.166;61.286;2022-12-07T15:55:00;7.50;;;6.73;;
25175;SDS011;13135;55.166;61.286;2022-12-07T15:57:44;5.93;;;5.37;;
25175;SDS011;13135;55.166;61.286;2022-12-07T16:00:29;11.67;;;8.90;;
25175;SDS011;13135;55.166;61.286;2022-12-07T16:03:12;11.37;;;8.67;;
25175;SDS011;13135;55.166;61.286;2022-12-07T16:05:53;6.03;;;5.57;;
25175;SDS011;13135;55.166;61.286;2022-12-07T16:08:43;13.33;;;7.33;;
25175;SDS011;13135;55.166;61.286;2022-12-07T16:11:27;14.23;;;10.67;;
25175;SDS011;13135;55.166;61.286;2022-12-07T16:14:11;14.90;;;11.57;;
25175;SDS011;13135;55.166;61.286;2022-12-07T16:16:55;8.77;;;8.03;;
25175;SDS011;13135;55.166;61.286;2022-12-07T16:19:41;13.73;;;9.83;;
25175;SDS011;13135;55.166;61.286;2022-12-07T16:22:24;11.77;;;10.20;;
25175;SDS011;13135;55.166;61.286;2022-12-07T16:25:08;11.13;;;7.23;;
25175;SDS011;13135;55.166;61.286;2022-12-07T16:27:50;9.77;;;7.37;;
25175;SDS011;13135;55.166;61.286;2022-12-07T16:30:33;5.20;;;4.80;;
25175;SDS011;13135;55.166;61.286;2022-12-07T16:33:17;7.50;;;6.93;;
25175;SDS011;13135;55.166;61.286;2022-12-07T16:36:01;8.90;;;6.57;;
25175;SDS011;13135;55.166;61.286;2022-12-07T16:38:45;8.77;;;6.73;;
25175;SDS011;13135;55.166;61.286;2022-12-07T16:41:29;10.87;;;10.00;;
25175;SDS011;13135;55.166;61.286;2022-12-07T16:44:14;8.43;;;7.53;;
25175;SDS011;13135;55.166;61.286;2022-12-07T16:46:58;5.67;;;5.27;;
25175;SDS011;13135;55.166;61.286;2022-12-07T16:49:42;9.90;;;7.57;;
25175;SDS011;13135;55.166;61.286;2022-12-07T16:52:27;7.73;;;6.97;;
25175;SDS011;13135;55.166;61.286;2022-12-07T16:55:12;10.03;;;8.93;;
25175;SDS011;13135;55.166;61.286;2022-12-07T16:57:56;12.57;;;11.40;;
25175;SDS011;13135;55.166;61.286;2022-12-07T17:00:41;15.47;;;13.00;;
25175;SDS011;13135;55.166;61.286;2022-12-07T17:03:24;20.37;;;14.83;;
25175;SDS011;13135;55.166;61.286;2022-12-07T17:06:11;12.57;;;9.90;;
25175;SDS011;13135;55.166;61.286;2022-12-07T17:08:57;14.93;;;12.83;;
25175;SDS011;13135;55.166;61.286;2022-12-07T17:11:43;13.37;;;12.13;;
25175;SDS011;13135;55.166;61.286;2022-12-07T17:14:27;7.60;;;6.93;;
25175;SDS011;13135;55.166;61.286;2022-12-07T17:17:12;11.10;;;9.60;;
25175;SDS011;13135;55.166;61.286;2022-12-07T17:19:56;20.37;;;13.17;;
25175;SDS011;13135;55.166;61.286;2022-12-07T17:22:40;14.17;;;11.93;;